createdAt,value
2018-09-17T00:00:38.421Z,17.79
2018-09-17T00:05:31.507Z,17.73
2018-09-17T00:10:24.510Z,17.72
2018-09-17T00:15:17.662Z,17.62
2018-09-17T00:20:11.102Z,17.70
2018-09-17T00:25:04.318Z,17.84
2018-09-17T00:29:57.398Z,17.73
2018-09-17T00:34:50.390Z,17.55
2018-09-17T00:39:43.403Z,17.42
2018-09-17T00:44:36.482Z,17.39
2018-09-17T00:49:29.443Z,17.39
2018-09-17T00:54:22.554Z,17.38
2018-09-17T00:59:15.900Z,17.43
2018-09-17T01:04:09.419Z,17.55
2018-09-17T01:09:02.377Z,17.72
2018-09-17T01:13:56.013Z,17.96
2018-09-17T01:18:49.153Z,18.13
2018-09-17T01:23:42.179Z,18.15
2018-09-17T01:28:35.165Z,18.10
2018-09-17T01:33:28.811Z,18.11
2018-09-17T01:38:21.918Z,18.09
2018-09-17T01:43:15.165Z,18.08
2018-09-17T01:48:09.339Z,18.14
2018-09-17T01:53:02.396Z,18.24
2018-09-17T01:57:55.545Z,18.36
2018-09-17T02:02:48.667Z,18.50
2018-09-17T02:07:41.784Z,18.47
2018-09-17T02:12:35.282Z,18.56
2018-09-17T02:17:28.920Z,18.68
2018-09-17T02:22:21.999Z,18.66
2018-09-17T02:27:15.203Z,18.56
2018-09-17T02:32:08.239Z,18.58
2018-09-17T02:37:01.263Z,18.43
2018-09-17T02:41:54.613Z,18.29
2018-09-17T02:46:47.601Z,18.28
2018-09-17T02:51:40.658Z,18.35
2018-09-17T02:56:33.790Z,18.48
2018-09-17T03:01:26.849Z,18.45
2018-09-17T03:06:20.855Z,18.24
2018-09-17T03:11:14.058Z,18.23
2018-09-17T03:16:07.127Z,18.42
2018-09-17T03:21:01.058Z,18.56
2018-09-17T03:25:54.174Z,18.47
2018-09-17T03:30:47.268Z,18.51
2018-09-17T03:35:43.682Z,18.66
2018-09-17T03:40:37.063Z,18.66
2018-09-17T03:45:30.013Z,18.76
2018-09-17T03:50:23.074Z,18.57
2018-09-17T03:55:16.190Z,18.33
2018-09-17T04:00:09.174Z,18.46
2018-09-17T04:05:03.650Z,18.48
2018-09-17T04:09:56.812Z,18.36
2018-09-17T04:14:49.970Z,18.31
2018-09-17T04:19:43.368Z,18.39
2018-09-17T04:24:36.434Z,18.32
2018-09-17T04:29:30.054Z,18.36
2018-09-17T04:34:23.103Z,18.50
2018-09-17T04:39:18.189Z,18.54
2018-09-17T04:44:11.298Z,18.75
2018-09-17T04:49:04.398Z,19.10
2018-09-17T04:53:57.364Z,19.15
2018-09-17T04:58:51.418Z,19.09
2018-09-17T05:03:44.502Z,19.07
2018-09-17T05:08:37.648Z,19.12
2018-09-17T05:13:31.048Z,19.01
2018-09-17T05:18:26.138Z,19.05
2018-09-17T05:23:19.250Z,19.08
2018-09-17T05:28:12.455Z,19.29
2018-09-17T05:33:05.501Z,19.48
2018-09-17T05:37:58.636Z,19.44
2018-09-17T05:42:51.712Z,19.54
2018-09-17T05:47:44.777Z,19.62
2018-09-17T05:52:37.911Z,19.76
2018-09-17T05:57:31.141Z,19.87
2018-09-17T06:02:24.291Z,20.14
2018-09-17T06:07:17.543Z,20.22
2018-09-17T06:12:10.728Z,20.33
2018-09-17T06:17:04.119Z,20.50
2018-09-17T06:21:57.094Z,20.59
2018-09-17T06:26:50.317Z,20.83
2018-09-17T06:31:43.395Z,20.90
2018-09-17T06:36:36.419Z,21.16
2018-09-17T06:41:30.219Z,21.23
2018-09-17T06:46:24.485Z,21.47
2018-09-17T06:51:17.997Z,21.36
2018-09-17T06:56:11.400Z,21.59
2018-09-17T07:01:04.530Z,21.69
2018-09-17T07:05:57.496Z,22.13
2018-09-17T07:10:50.971Z,22.46
2018-09-17T07:15:44.184Z,22.39
2018-09-17T07:20:37.731Z,22.54
2018-09-17T07:25:31.408Z,22.38
2018-09-17T07:30:24.932Z,22.46
2018-09-17T07:35:18.467Z,22.44
2018-09-17T07:40:11.567Z,22.37
2018-09-17T07:45:08.417Z,22.15
2018-09-17T07:50:01.465Z,22.16
2018-09-17T07:54:54.566Z,22.28
2018-09-17T07:59:47.744Z,22.63
2018-09-17T08:04:42.336Z,22.50
2018-09-17T08:09:35.519Z,22.66
2018-09-17T08:14:28.557Z,22.66
2018-09-17T08:19:21.758Z,23.07
2018-09-17T08:24:14.864Z,23.15
2018-09-17T08:29:08.176Z,22.81
2018-09-17T08:34:02.087Z,23.28
2018-09-17T08:38:56.179Z,23.42
2018-09-17T08:43:49.356Z,23.54
2018-09-17T08:48:44.967Z,23.28
2018-09-17T08:53:38.144Z,23.41
2018-09-17T08:58:34.177Z,23.56
2018-09-17T09:03:32.801Z,23.59
2018-09-17T09:08:25.874Z,23.53
2018-09-17T09:13:24.546Z,23.69
2018-09-17T09:18:20.055Z,23.67
2018-09-17T09:23:13.522Z,23.53
2018-09-17T09:28:06.634Z,23.66
2018-09-17T09:33:00.224Z,23.84
2018-09-17T09:37:53.463Z,23.99
2018-09-17T09:42:46.535Z,23.76
2018-09-17T09:47:39.723Z,23.81
2018-09-17T09:52:32.833Z,24.14
2018-09-17T09:57:25.959Z,24.76
2018-09-17T10:02:24.519Z,24.45
2018-09-17T10:07:18.493Z,24.36
2018-09-17T10:12:16.841Z,24.92
2018-09-17T10:17:15.353Z,24.51
2018-09-17T10:22:08.476Z,24.82
2018-09-17T10:27:01.564Z,24.64
2018-09-17T10:31:54.590Z,24.55
2018-09-17T10:36:47.693Z,25.08
2018-09-17T10:41:41.314Z,25.39
2018-09-17T10:46:34.719Z,25.58
2018-09-17T10:51:28.827Z,25.29
2018-09-17T10:56:21.861Z,25.70
2018-09-17T11:01:15.886Z,25.89
2018-09-17T11:06:09.078Z,25.76
2018-09-17T11:11:02.529Z,25.78
2018-09-17T11:15:55.706Z,25.06
2018-09-17T11:20:49.600Z,25.28
2018-09-17T11:25:42.759Z,25.05
2018-09-17T11:30:36.220Z,25.03
2018-09-17T11:35:29.286Z,25.84
2018-09-17T11:40:22.713Z,25.64
2018-09-17T11:45:15.752Z,25.09
2018-09-17T11:50:08.926Z,24.58
2018-09-17T11:55:02.271Z,24.67
2018-09-17T11:59:55.740Z,24.55
2018-09-17T12:04:54.627Z,24.71
2018-09-17T12:09:47.775Z,25.08
2018-09-17T12:14:43.567Z,25.12
2018-09-17T12:19:36.655Z,25.22
2018-09-17T12:24:29.726Z,25.12
2018-09-17T12:29:22.953Z,25.01
2018-09-17T12:34:16.066Z,25.38
2018-09-17T12:39:10.256Z,25.58
2018-09-17T12:44:03.591Z,25.58
2018-09-17T12:48:56.736Z,25.81
2018-09-17T12:53:50.002Z,25.86
2018-09-17T12:58:43.150Z,25.76
2018-09-17T13:03:36.197Z,25.58
2018-09-17T13:08:29.396Z,25.71
2018-09-17T13:13:22.777Z,25.57
2018-09-17T13:18:15.970Z,25.57
2018-09-17T13:23:09.219Z,25.64
2018-09-17T13:28:02.435Z,25.52
2018-09-17T13:32:55.863Z,25.13
2018-09-17T13:37:48.895Z,25.05
2018-09-17T13:42:42.045Z,25.02
2018-09-17T13:47:35.318Z,25.09
2018-09-17T13:52:28.555Z,25.16
2018-09-17T13:57:22.019Z,25.44
2018-09-17T14:02:15.250Z,25.38
2018-09-17T14:07:08.728Z,25.39
2018-09-17T14:12:02.153Z,25.29
2018-09-17T14:16:55.347Z,25.32
2018-09-17T14:21:48.860Z,25.26
2018-09-17T14:26:41.996Z,25.16
2018-09-17T14:31:41.447Z,25.25
2018-09-17T14:36:34.770Z,25.44
2018-09-17T14:41:28.121Z,25.28
2018-09-17T14:46:21.878Z,25.14
2018-09-17T14:51:15.569Z,25.03
2018-09-17T14:56:08.696Z,25.06
2018-09-17T15:01:02.292Z,25.00
2018-09-17T15:05:56.879Z,24.65
2018-09-17T15:10:50.126Z,24.44
2018-09-17T15:15:50.743Z,24.28
2018-09-17T15:20:46.506Z,24.21
2018-09-17T15:25:40.043Z,24.08
2018-09-17T15:30:33.580Z,23.96
2018-09-17T15:35:29.427Z,23.81
2018-09-17T15:40:22.630Z,23.51
2018-09-17T15:45:17.072Z,23.26
2018-09-17T15:50:12.728Z,23.09
2018-09-17T15:55:11.954Z,22.98
2018-09-17T16:00:06.578Z,22.83
2018-09-17T16:05:00.956Z,22.73
2018-09-17T16:09:55.380Z,22.62
2018-09-17T16:14:51.944Z,22.51
2018-09-17T16:19:46.819Z,22.55
2018-09-17T16:24:40.490Z,22.51
2018-09-17T16:29:34.258Z,22.42
2018-09-17T16:34:29.869Z,22.25
2018-09-17T16:39:23.574Z,22.01
2018-09-17T16:44:18.024Z,21.83
2018-09-17T16:49:14.665Z,21.61
2018-09-17T16:54:08.184Z,21.37
2018-09-17T16:59:02.708Z,21.26
2018-09-17T17:04:00.914Z,21.09
2018-09-17T17:08:57.848Z,20.90
2018-09-17T17:13:50.991Z,20.86
2018-09-17T17:18:44.474Z,20.82
2018-09-17T17:23:37.631Z,20.73
2018-09-17T17:28:30.926Z,20.58
2018-09-17T17:33:24.186Z,20.42
2018-09-17T17:38:21.329Z,20.27
2018-09-17T17:43:15.187Z,20.03
2018-09-17T17:48:09.312Z,20.00
2018-09-17T17:53:02.567Z,19.86
2018-09-17T17:57:56.279Z,19.79
2018-09-17T18:02:49.633Z,19.66
2018-09-17T18:07:43.667Z,19.58
2018-09-17T18:12:37.757Z,19.53
2018-09-17T18:17:31.918Z,19.46
2018-09-17T18:22:25.405Z,19.38
2018-09-17T18:27:18.580Z,19.37
2018-09-17T18:32:12.410Z,19.28
2018-09-17T18:37:06.165Z,19.24
2018-09-17T18:42:00.076Z,19.29
2018-09-17T18:46:53.391Z,19.15
2018-09-17T18:51:47.853Z,19.12
2018-09-17T18:56:42.509Z,19.08
2018-09-17T19:01:36.740Z,19.04
2018-09-17T19:06:31.104Z,19.01
2018-09-17T19:11:25.554Z,18.96
2018-09-17T19:16:23.994Z,19.06
2018-09-17T19:21:17.335Z,19.05
2018-09-17T19:26:10.784Z,18.97
2018-09-17T19:31:04.795Z,18.91
2018-09-17T19:35:59.303Z,18.92
2018-09-17T19:40:52.717Z,18.81
2018-09-17T19:45:53.073Z,18.48
2018-09-17T19:50:51.993Z,18.23
2018-09-17T19:55:45.876Z,18.13
2018-09-17T20:00:40.230Z,17.98
2018-09-17T20:05:39.891Z,17.69
2018-09-17T20:10:33.879Z,17.60
2018-09-17T20:15:27.340Z,17.26
2018-09-17T20:20:20.653Z,17.22
2018-09-17T20:25:15.524Z,17.19
2018-09-17T20:30:08.948Z,17.17
2018-09-17T20:35:02.508Z,17.08
2018-09-17T20:39:57.842Z,16.93
2018-09-17T20:44:52.857Z,16.89
2018-09-17T20:49:47.176Z,16.88
2018-09-17T20:54:40.242Z,16.86
2018-09-17T20:59:34.941Z,16.78
2018-09-17T21:04:28.211Z,16.75
2018-09-17T21:09:22.140Z,16.67
2018-09-17T21:14:16.152Z,16.61
2018-09-17T21:19:10.603Z,16.57
2018-09-17T21:24:04.144Z,16.62
2018-09-17T21:28:59.582Z,16.54
2018-09-17T21:33:53.451Z,16.52
2018-09-17T21:38:48.856Z,16.39
2018-09-17T21:43:43.077Z,16.36
2018-09-17T21:48:36.706Z,16.35
2018-09-17T21:53:33.036Z,16.27
2018-09-17T21:58:30.770Z,16.26
2018-09-17T22:03:24.527Z,16.24
2018-09-17T22:08:18.038Z,16.19
2018-09-17T22:13:11.259Z,16.16
2018-09-17T22:18:04.405Z,16.06
2018-09-17T22:22:57.494Z,15.91
2018-09-17T22:27:50.491Z,15.84
2018-09-17T22:32:43.502Z,15.91
2018-09-17T22:37:36.615Z,16.00
2018-09-17T22:42:30.036Z,15.84
2018-09-17T22:47:23.113Z,15.76
2018-09-17T22:52:16.126Z,15.82
2018-09-17T22:57:09.270Z,15.81
2018-09-17T23:02:02.344Z,15.88
2018-09-17T23:06:55.311Z,15.87
2018-09-17T23:11:48.505Z,15.75
2018-09-17T23:16:41.619Z,15.72
2018-09-17T23:21:34.808Z,15.58
2018-09-17T23:26:28.054Z,15.55
2018-09-17T23:31:21.565Z,15.56
2018-09-17T23:36:14.773Z,15.59
2018-09-17T23:41:07.943Z,15.55
2018-09-17T23:46:01.190Z,15.50
2018-09-17T23:50:54.371Z,15.42
2018-09-17T23:55:47.418Z,15.45
